Huntington Beach, California
Current Conditions -  °F | °C
As of 9:53 AM on Sunday 21 Dec 2014 (Local Time) from KSNA Reporting Station
Clear Clear  
Wind Chill: 65°   Ceiling: Unl
Heat Index: 65°   Visibility: 10mi
Dew Point: 53°   Wind: 0mph
Humidity: 65%   Direction: NA
Pressure: 30.15"   Gusts: NA
Location:  33.68°N, 118°W
Report Text: KSNA 211753Z 00000KT 10SM CLR 18/12 A3015 RMK AO2 SLP210 T01830117 10183 20122 53008
Loading
Personal Weather Stations






























Interactive Weather Map New forecast layout! Learn more

10-Day Weather Forecast

Advertisements
Track Severe Weather on mobile